Terminal Aerodrome Forecast
Issued by NWS Twin Cities, MN

Home | Current Version | Previous Version | Text Only | Print | Product List | Glossary Off
Versions: 1 2 3 4 5 6 7 8 9 10 11 12 13 14 15 16 17 18 19 20 21 22 23 24 25 26 27 28

560
FTUS43 KMPX 220305 AAA
TAFMSP
TAF AMD
KMSP 220305Z 2203/2306 VRB03KT P6SM BKN250
     FM221500 08004KT P6SM OVC100
     FM222000 09007KT P6SM VCSH OVC040
     FM222200 09007KT 2SM -SN BR OVC015
     FM230200 08008KT 3/4SM -SN BR VV009=

USA.gov is the U.S. government's official web portal to all federal, state and local government web resources and services.